sensor_id;sensor_type;location;lat;lon;timestamp;temperature;humidity
65824;SHT31;52585;47.566;19.056;2022-10-16T00:01:25;17.26;64.17
65824;SHT31;52585;47.566;19.056;2022-10-16T00:03:54;17.25;64.10
65824;SHT31;52585;47.566;19.056;2022-10-16T00:06:23;17.25;64.12
65824;SHT31;52585;47.566;19.056;2022-10-16T00:08:52;17.23;64.14
65824;SHT31;52585;47.566;19.056;2022-10-16T00:11:20;17.22;64.19
65824;SHT31;52585;47.566;19.056;2022-10-16T00:13:51;17.22;64.13
65824;SHT31;52585;47.566;19.056;2022-10-16T00:16:24;17.20;64.07
65824;SHT31;52585;47.566;19.056;2022-10-16T00:18:51;17.19;64.11
65824;SHT31;52585;47.566;19.056;2022-10-16T00:21:19;17.19;64.25
65824;SHT31;52585;47.566;19.056;2022-10-16T00:23:51;17.17;64.46
65824;SHT31;52585;47.566;19.056;2022-10-16T00:26:19;17.17;64.39
65824;SHT31;52585;47.566;19.056;2022-10-16T00:28:46;17.16;64.44
65824;SHT31;52585;47.566;19.056;2022-10-16T00:31:15;17.16;64.32
65824;SHT31;52585;47.566;19.056;2022-10-16T00:33:42;17.17;64.17
65824;SHT31;52585;47.566;19.056;2022-10-16T00:36:10;17.17;64.16
65824;SHT31;52585;47.566;19.056;2022-10-16T00:38:39;17.16;64.00
65824;SHT31;52585;47.566;19.056;2022-10-16T00:41:07;17.17;63.98
65824;SHT31;52585;47.566;19.056;2022-10-16T00:43:43;17.17;63.91
65824;SHT31;52585;47.566;19.056;2022-10-16T00:48:54;17.17;63.91
65824;SHT31;52585;47.566;19.056;2022-10-16T00:51:24;17.18;63.85
65824;SHT31;52585;47.566;19.056;2022-10-16T00:53:57;17.18;63.87
65824;SHT31;52585;47.566;19.056;2022-10-16T00:56:25;17.16;64.04
65824;SHT31;52585;47.566;19.056;2022-10-16T00:58:52;17.15;64.02
65824;SHT31;52585;47.566;19.056;2022-10-16T01:01:18;17.15;63.89
65824;SHT31;52585;47.566;19.056;2022-10-16T01:03:44;17.14;63.92
65824;SHT31;52585;47.566;19.056;2022-10-16T01:12:09;17.13;63.80
65824;SHT31;52585;47.566;19.056;2022-10-16T01:14:59;17.12;63.64
65824;SHT31;52585;47.566;19.056;2022-10-16T01:20:35;17.13;63.78
65824;SHT31;52585;47.566;19.056;2022-10-16T01:28:41;17.12;63.55
65824;SHT31;52585;47.566;19.056;2022-10-16T01:31:36;17.10;63.57
65824;SHT31;52585;47.566;19.056;2022-10-16T01:34:16;17.11;63.35
65824;SHT31;52585;47.566;19.056;2022-10-16T01:36:53;17.09;63.28
65824;SHT31;52585;47.566;19.056;2022-10-16T01:39:29;17.07;63.46
65824;SHT31;52585;47.566;19.056;2022-10-16T01:42:11;17.03;63.75
65824;SHT31;52585;47.566;19.056;2022-10-16T01:44:47;16.99;63.55
65824;SHT31;52585;47.566;19.056;2022-10-16T01:47:16;16.96;63.48
65824;SHT31;52585;47.566;19.056;2022-10-16T01:49:53;16.94;63.39
65824;SHT31;52585;47.566;19.056;2022-10-16T01:52:25;16.91;63.91
65824;SHT31;52585;47.566;19.056;2022-10-16T01:54:55;16.88;64.05
65824;SHT31;52585;47.566;19.056;2022-10-16T01:57:24;16.86;63.73
65824;SHT31;52585;47.566;19.056;2022-10-16T02:00:01;16.84;63.88
65824;SHT31;52585;47.566;19.056;2022-10-16T02:02:39;16.82;63.84
65824;SHT31;52585;47.566;19.056;2022-10-16T02:07:48;16.77;63.83
65824;SHT31;52585;47.566;19.056;2022-10-16T02:10:21;16.73;63.97
65824;SHT31;52585;47.566;19.056;2022-10-16T02:13:06;16.71;64.10
65824;SHT31;52585;47.566;19.056;2022-10-16T02:16:06;16.66;64.26
65824;SHT31;52585;47.566;19.056;2022-10-16T02:18:34;16.61;64.26
65824;SHT31;52585;47.566;19.056;2022-10-16T02:29:47;16.44;64.36
65824;SHT31;52585;47.566;19.056;2022-10-16T02:32:23;16.40;64.45
65824;SHT31;52585;47.566;19.056;2022-10-16T02:34:59;16.37;64.65
65824;SHT31;52585;47.566;19.056;2022-10-16T02:37:27;16.36;64.77
65824;SHT31;52585;47.566;19.056;2022-10-16T02:39:56;16.32;64.75
65824;SHT31;52585;47.566;19.056;2022-10-16T02:42:28;16.30;64.66
65824;SHT31;52585;47.566;19.056;2022-10-16T02:45:03;16.28;64.61
65824;SHT31;52585;47.566;19.056;2022-10-16T02:47:30;16.28;64.60
65824;SHT31;52585;47.566;19.056;2022-10-16T02:49:57;16.27;64.92
65824;SHT31;52585;47.566;19.056;2022-10-16T02:52:22;16.25;64.93
65824;SHT31;52585;47.566;19.056;2022-10-16T02:54:51;16.24;64.97
65824;SHT31;52585;47.566;19.056;2022-10-16T02:57:17;16.23;65.02
65824;SHT31;52585;47.566;19.056;2022-10-16T02:59:44;16.20;65.14
65824;SHT31;52585;47.566;19.056;2022-10-16T03:02:10;16.18;65.01
65824;SHT31;52585;47.566;19.056;2022-10-16T03:04:39;16.15;64.97
65824;SHT31;52585;47.566;19.056;2022-10-16T03:07:07;16.12;64.94
65824;SHT31;52585;47.566;19.056;2022-10-16T03:09:34;16.10;65.01
65824;SHT31;52585;47.566;19.056;2022-10-16T03:12:07;16.08;65.23
65824;SHT31;52585;47.566;19.056;2022-10-16T03:14:32;16.05;65.30
65824;SHT31;52585;47.566;19.056;2022-10-16T03:16:59;16.01;65.24
65824;SHT31;52585;47.566;19.056;2022-10-16T03:19:24;15.98;65.11
65824;SHT31;52585;47.566;19.056;2022-10-16T03:21:50;15.96;65.18
65824;SHT31;52585;47.566;19.056;2022-10-16T03:24:16;15.95;65.41
65824;SHT31;52585;47.566;19.056;2022-10-16T03:26:41;15.94;65.64
65824;SHT31;52585;47.566;19.056;2022-10-16T03:29:07;15.93;65.70
65824;SHT31;52585;47.566;19.056;2022-10-16T03:31:34;15.91;65.50
65824;SHT31;52585;47.566;19.056;2022-10-16T03:34:00;15.89;65.34
65824;SHT31;52585;47.566;19.056;2022-10-16T03:36:26;15.86;65.21
65824;SHT31;52585;47.566;19.056;2022-10-16T03:38:52;15.83;65.21
65824;SHT31;52585;47.566;19.056;2022-10-16T03:41:19;15.80;65.24
65824;SHT31;52585;47.566;19.056;2022-10-16T03:43:45;15.79;65.38
65824;SHT31;52585;47.566;19.056;2022-10-16T03:46:12;15.77;65.47
65824;SHT31;52585;47.566;19.056;2022-10-16T03:48:38;15.74;65.41
65824;SHT31;52585;47.566;19.056;2022-10-16T03:51:05;15.72;65.48
65824;SHT31;52585;47.566;19.056;2022-10-16T03:53:31;15.68;65.38
65824;SHT31;52585;47.566;19.056;2022-10-16T03:55:56;15.65;65.28
65824;SHT31;52585;47.566;19.056;2022-10-16T03:58:23;15.62;65.29
65824;SHT31;52585;47.566;19.056;2022-10-16T04:00:49;15.59;65.25
65824;SHT31;52585;47.566;19.056;2022-10-16T04:03:15;15.56;65.40
65824;SHT31;52585;47.566;19.056;2022-10-16T04:05:44;15.53;65.51
65824;SHT31;52585;47.566;19.056;2022-10-16T04:08:09;15.50;65.41
65824;SHT31;52585;47.566;19.056;2022-10-16T04:10:35;15.48;65.48
65824;SHT31;52585;47.566;19.056;2022-10-16T04:13:02;15.46;65.57
65824;SHT31;52585;47.566;19.056;2022-10-16T04:15:29;15.43;65.54
65824;SHT31;52585;47.566;19.056;2022-10-16T04:17:54;15.41;65.52
65824;SHT31;52585;47.566;19.056;2022-10-16T04:20:21;15.39;65.46
65824;SHT31;52585;47.566;19.056;2022-10-16T04:22:47;15.36;65.42
65824;SHT31;52585;47.566;19.056;2022-10-16T04:25:13;15.35;65.39
65824;SHT31;52585;47.566;19.056;2022-10-16T04:27:39;15.33;65.39
65824;SHT31;52585;47.566;19.056;2022-10-16T04:30:06;15.30;65.40
65824;SHT31;52585;47.566;19.056;2022-10-16T04:32:33;15.27;65.52
65824;SHT31;52585;47.566;19.056;2022-10-16T04:35:00;15.25;65.47
65824;SHT31;52585;47.566;19.056;2022-10-16T04:37:27;15.22;65.42
65824;SHT31;52585;47.566;19.056;2022-10-16T04:39:53;15.21;65.39
65824;SHT31;52585;47.566;19.056;2022-10-16T04:42:20;15.17;65.27
65824;SHT31;52585;47.566;19.056;2022-10-16T04:44:51;15.13;65.25
65824;SHT31;52585;47.566;19.056;2022-10-16T04:47:17;15.09;65.39
65824;SHT31;52585;47.566;19.056;2022-10-16T04:49:43;15.08;65.51
65824;SHT31;52585;47.566;19.056;2022-10-16T04:52:08;15.06;65.57
65824;SHT31;52585;47.566;19.056;2022-10-16T04:54:37;15.03;65.59
65824;SHT31;52585;47.566;19.056;2022-10-16T04:57:02;15.00;65.64
65824;SHT31;52585;47.566;19.056;2022-10-16T04:59:29;14.99;65.62
65824;SHT31;52585;47.566;19.056;2022-10-16T05:01:56;14.98;65.53
65824;SHT31;52585;47.566;19.056;2022-10-16T05:04:22;14.96;65.60
65824;SHT31;52585;47.566;19.056;2022-10-16T05:06:50;14.95;65.51
65824;SHT31;52585;47.566;19.056;2022-10-16T05:09:17;14.93;65.46
65824;SHT31;52585;47.566;19.056;2022-10-16T05:11:43;14.92;65.39
65824;SHT31;52585;47.566;19.056;2022-10-16T05:14:09;14.90;65.40
65824;SHT31;52585;47.566;19.056;2022-10-16T05:16:35;14.87;65.47
65824;SHT31;52585;47.566;19.056;2022-10-16T05:19:02;14.85;65.38
65824;SHT31;52585;47.566;19.056;2022-10-16T05:21:28;14.82;65.41
65824;SHT31;52585;47.566;19.056;2022-10-16T05:23:54;14.80;65.37
65824;SHT31;52585;47.566;19.056;2022-10-16T05:26:21;14.78;65.39
65824;SHT31;52585;47.566;19.056;2022-10-16T05:28:56;14.77;65.51
65824;SHT31;52585;47.566;19.056;2022-10-16T05:31:38;14.76;65.63
65824;SHT31;52585;47.566;19.056;2022-10-16T05:34:05;14.76;65.69
65824;SHT31;52585;47.566;19.056;2022-10-16T05:36:31;14.75;65.74
65824;SHT31;52585;47.566;19.056;2022-10-16T05:38:56;14.74;65.80
65824;SHT31;52585;47.566;19.056;2022-10-16T05:41:22;14.75;65.74
65824;SHT31;52585;47.566;19.056;2022-10-16T05:43:50;14.74;65.72
65824;SHT31;52585;47.566;19.056;2022-10-16T05:46:18;14.73;65.60
65824;SHT31;52585;47.566;19.056;2022-10-16T05:48:44;14.73;65.65
65824;SHT31;52585;47.566;19.056;2022-10-16T05:51:12;14.73;65.77
65824;SHT31;52585;47.566;19.056;2022-10-16T05:53:41;14.73;65.92
65824;SHT31;52585;47.566;19.056;2022-10-16T05:56:09;14.73;65.89
65824;SHT31;52585;47.566;19.056;2022-10-16T05:58:38;14.73;65.82
65824;SHT31;52585;47.566;19.056;2022-10-16T06:03:43;14.73;66.04
65824;SHT31;52585;47.566;19.056;2022-10-16T06:06:15;14.74;66.11
65824;SHT31;52585;47.566;19.056;2022-10-16T06:08:45;14.76;66.36
65824;SHT31;52585;47.566;19.056;2022-10-16T06:11:20;14.77;66.58
65824;SHT31;52585;47.566;19.056;2022-10-16T06:13:50;14.81;66.53
65824;SHT31;52585;47.566;19.056;2022-10-16T06:16:17;14.84;66.55
65824;SHT31;52585;47.566;19.056;2022-10-16T06:18:44;14.87;66.58
65824;SHT31;52585;47.566;19.056;2022-10-16T06:21:12;14.91;66.78
65824;SHT31;52585;47.566;19.056;2022-10-16T06:23:43;14.94;66.85
65824;SHT31;52585;47.566;19.056;2022-10-16T06:26:14;14.97;66.91
65824;SHT31;52585;47.566;19.056;2022-10-16T06:28:46;14.98;67.10
65824;SHT31;52585;47.566;19.056;2022-10-16T06:31:13;15.02;67.08
65824;SHT31;52585;47.566;19.056;2022-10-16T06:33:40;15.05;67.22
65824;SHT31;52585;47.566;19.056;2022-10-16T06:36:09;15.08;67.27
65824;SHT31;52585;47.566;19.056;2022-10-16T06:38:37;15.13;67.19
65824;SHT31;52585;47.566;19.056;2022-10-16T06:41:04;15.19;66.93
65824;SHT31;52585;47.566;19.056;2022-10-16T06:43:32;15.24;66.61
65824;SHT31;52585;47.566;19.056;2022-10-16T06:46:02;15.29;66.34
65824;SHT31;52585;47.566;19.056;2022-10-16T06:48:30;15.33;66.08
65824;SHT31;52585;47.566;19.056;2022-10-16T06:51:01;15.36;65.67
65824;SHT31;52585;47.566;19.056;2022-10-16T06:53:34;15.40;65.24
65824;SHT31;52585;47.566;19.056;2022-10-16T06:56:11;15.41;64.89
65824;SHT31;52585;47.566;19.056;2022-10-16T06:58:39;15.43;64.64
65824;SHT31;52585;47.566;19.056;2022-10-16T07:01:07;15.45;64.59
65824;SHT31;52585;47.566;19.056;2022-10-16T07:03:36;15.47;64.71
65824;SHT31;52585;47.566;19.056;2022-10-16T07:06:04;15.50;64.54
65824;SHT31;52585;47.566;19.056;2022-10-16T07:08:35;15.52;64.21
65824;SHT31;52585;47.566;19.056;2022-10-16T07:11:07;15.53;64.22
65824;SHT31;52585;47.566;19.056;2022-10-16T07:13:38;15.55;63.93
65824;SHT31;52585;47.566;19.056;2022-10-16T07:16:08;15.58;63.88
65824;SHT31;52585;47.566;19.056;2022-10-16T07:18:40;15.59;63.64
65824;SHT31;52585;47.566;19.056;2022-10-16T07:21:13;15.62;63.71
65824;SHT31;52585;47.566;19.056;2022-10-16T07:23:44;15.63;63.63
65824;SHT31;52585;47.566;19.056;2022-10-16T07:26:10;15.67;63.62
65824;SHT31;52585;47.566;19.056;2022-10-16T07:28:37;15.70;63.58
65824;SHT31;52585;47.566;19.056;2022-10-16T07:31:06;15.71;63.55
65824;SHT31;52585;47.566;19.056;2022-10-16T07:33:36;15.74;63.52
65824;SHT31;52585;47.566;19.056;2022-10-16T07:36:03;15.76;63.43
65824;SHT31;52585;47.566;19.056;2022-10-16T07:38:30;15.78;63.36
65824;SHT31;52585;47.566;19.056;2022-10-16T07:40:57;15.81;63.34
65824;SHT31;52585;47.566;19.056;2022-10-16T07:43:26;15.83;63.14
65824;SHT31;52585;47.566;19.056;2022-10-16T07:45:53;15.85;63.12
65824;SHT31;52585;47.566;19.056;2022-10-16T07:48:21;15.85;63.08
65824;SHT31;52585;47.566;19.056;2022-10-16T07:50:49;15.89;62.87
65824;SHT31;52585;47.566;19.056;2022-10-16T07:53:16;15.90;62.90
65824;SHT31;52585;47.566;19.056;2022-10-16T07:55:42;15.92;62.89
65824;SHT31;52585;47.566;19.056;2022-10-16T07:58:09;15.94;62.95
65824;SHT31;52585;47.566;19.056;2022-10-16T08:00:35;15.96;62.97
65824;SHT31;52585;47.566;19.056;2022-10-16T08:03:03;15.99;62.94
65824;SHT31;52585;47.566;19.056;2022-10-16T08:05:29;16.00;62.84
65824;SHT31;52585;47.566;19.056;2022-10-16T08:07:58;16.02;62.63
65824;SHT31;52585;47.566;19.056;2022-10-16T08:10:25;16.04;62.52
65824;SHT31;52585;47.566;19.056;2022-10-16T08:12:52;16.07;62.47
65824;SHT31;52585;47.566;19.056;2022-10-16T08:15:18;16.08;62.55
65824;SHT31;52585;47.566;19.056;2022-10-16T08:17:54;16.11;62.56
65824;SHT31;52585;47.566;19.056;2022-10-16T08:20:25;16.13;62.48
65824;SHT31;52585;47.566;19.056;2022-10-16T08:22:53;16.15;62.46
65824;SHT31;52585;47.566;19.056;2022-10-16T08:25:21;16.18;62.47
65824;SHT31;52585;47.566;19.056;2022-10-16T08:27:49;16.21;62.41
65824;SHT31;52585;47.566;19.056;2022-10-16T08:30:17;16.25;62.46
65824;SHT31;52585;47.566;19.056;2022-10-16T08:32:45;16.26;62.39
65824;SHT31;52585;47.566;19.056;2022-10-16T08:35:11;16.29;62.33
65824;SHT31;52585;47.566;19.056;2022-10-16T08:37:40;16.32;62.38
65824;SHT31;52585;47.566;19.056;2022-10-16T08:40:11;16.34;62.38
65824;SHT31;52585;47.566;19.056;2022-10-16T08:48:32;16.42;62.40
65824;SHT31;52585;47.566;19.056;2022-10-16T08:51:24;16.45;62.10
65824;SHT31;52585;47.566;19.056;2022-10-16T08:53:59;16.47;62.12
65824;SHT31;52585;47.566;19.056;2022-10-16T08:56:43;16.50;62.06
65824;SHT31;52585;47.566;19.056;2022-10-16T08:59:13;16.52;62.07
65824;SHT31;52585;47.566;19.056;2022-10-16T09:01:46;16.55;61.99
65824;SHT31;52585;47.566;19.056;2022-10-16T09:07:27;16.61;61.99
65824;SHT31;52585;47.566;19.056;2022-10-16T09:15:41;16.71;61.73
65824;SHT31;52585;47.566;19.056;2022-10-16T09:21:21;16.78;61.43
65824;SHT31;52585;47.566;19.056;2022-10-16T09:23:53;16.82;61.34
65824;SHT31;52585;47.566;19.056;2022-10-16T09:26:24;16.85;61.27
65824;SHT31;52585;47.566;19.056;2022-10-16T09:28:51;16.87;61.14
65824;SHT31;52585;47.566;19.056;2022-10-16T09:31:20;16.89;61.16
65824;SHT31;52585;47.566;19.056;2022-10-16T09:33:50;16.93;61.20
65824;SHT31;52585;47.566;19.056;2022-10-16T09:36:25;16.95;61.12
65824;SHT31;52585;47.566;19.056;2022-10-16T09:39:07;16.99;61.08
65824;SHT31;52585;47.566;19.056;2022-10-16T09:41:37;17.02;60.85
65824;SHT31;52585;47.566;19.056;2022-10-16T09:44:27;17.05;60.95
65824;SHT31;52585;47.566;19.056;2022-10-16T09:47:04;17.08;60.90
65824;SHT31;52585;47.566;19.056;2022-10-16T09:49:59;17.11;61.18
65824;SHT31;52585;47.566;19.056;2022-10-16T09:52:31;17.15;61.12
65824;SHT31;52585;47.566;19.056;2022-10-16T09:54:59;17.17;60.92
65824;SHT31;52585;47.566;19.056;2022-10-16T09:57:50;17.21;60.77
65824;SHT31;52585;47.566;19.056;2022-10-16T10:00:22;17.23;60.69
65824;SHT31;52585;47.566;19.056;2022-10-16T10:02:50;17.27;60.41
65824;SHT31;52585;47.566;19.056;2022-10-16T10:08:24;17.34;60.67
65824;SHT31;52585;47.566;19.056;2022-10-16T10:10:43;17.38;60.57
65824;SHT31;52585;47.566;19.056;2022-10-16T10:13:18;17.40;60.38
65824;SHT31;52585;47.566;19.056;2022-10-16T10:15:48;17.42;60.28
65824;SHT31;52585;47.566;19.056;2022-10-16T10:18:19;17.45;60.21
65824;SHT31;52585;47.566;19.056;2022-10-16T10:21:00;17.50;60.16
65824;SHT31;52585;47.566;19.056;2022-10-16T10:23:28;17.53;60.19
65824;SHT31;52585;47.566;19.056;2022-10-16T10:28:47;17.58;59.81
65824;SHT31;52585;47.566;19.056;2022-10-16T10:37:21;17.71;60.27
65824;SHT31;52585;47.566;19.056;2022-10-16T10:43:54;17.85;59.98
65824;SHT31;52585;47.566;19.056;2022-10-16T10:46:23;17.86;59.57
65824;SHT31;52585;47.566;19.056;2022-10-16T11:08:41;18.00;59.39
65824;SHT31;52585;47.566;19.056;2022-10-16T11:11:20;18.03;59.26
65824;SHT31;52585;47.566;19.056;2022-10-16T11:14:00;18.06;59.13
65824;SHT31;52585;47.566;19.056;2022-10-16T11:17:13;18.08;59.08
65824;SHT31;52585;47.566;19.056;2022-10-16T11:19:52;18.10;59.03
65824;SHT31;52585;47.566;19.056;2022-10-16T11:22:36;18.13;58.81
65824;SHT31;52585;47.566;19.056;2022-10-16T11:25:23;18.15;59.12
65824;SHT31;52585;47.566;19.056;2022-10-16T11:31:05;18.22;59.12
65824;SHT31;52585;47.566;19.056;2022-10-16T11:36:27;18.27;58.58
65824;SHT31;52585;47.566;19.056;2022-10-16T11:41:35;18.32;58.72
65824;SHT31;52585;47.566;19.056;2022-10-16T11:44:13;18.36;58.40
65824;SHT31;52585;47.566;19.056;2022-10-16T11:46:51;18.40;58.18
65824;SHT31;52585;47.566;19.056;2022-10-16T11:49:30;18.43;58.34
65824;SHT31;52585;47.566;19.056;2022-10-16T11:55:17;18.43;58.85
65824;SHT31;52585;47.566;19.056;2022-10-16T11:57:49;18.44;58.92
65824;SHT31;52585;47.566;19.056;2022-10-16T12:00:23;18.45;58.84
65824;SHT31;52585;47.566;19.056;2022-10-16T12:03:03;18.47;58.35
65824;SHT31;52585;47.566;19.056;2022-10-16T12:08:28;18.49;58.14
65824;SHT31;52585;47.566;19.056;2022-10-16T12:11:09;18.51;57.82
65824;SHT31;52585;47.566;19.056;2022-10-16T12:14:06;18.53;57.72
65824;SHT31;52585;47.566;19.056;2022-10-16T12:19:31;18.58;57.66
65824;SHT31;52585;47.566;19.056;2022-10-16T12:21:59;18.61;57.57
65824;SHT31;52585;47.566;19.056;2022-10-16T12:24:33;18.62;58.00
65824;SHT31;52585;47.566;19.056;2022-10-16T12:27:05;18.64;58.55
65824;SHT31;52585;47.566;19.056;2022-10-16T12:29:48;18.67;58.30
65824;SHT31;52585;47.566;19.056;2022-10-16T12:32:30;18.68;57.76
65824;SHT31;52585;47.566;19.056;2022-10-16T12:35:03;18.70;57.36
65824;SHT31;52585;47.566;19.056;2022-10-16T12:37:42;18.73;57.35
65824;SHT31;52585;47.566;19.056;2022-10-16T12:40:11;18.74;57.21
65824;SHT31;52585;47.566;19.056;2022-10-16T12:42:41;18.76;57.09
65824;SHT31;52585;47.566;19.056;2022-10-16T12:47:59;18.76;56.93
65824;SHT31;52585;47.566;19.056;2022-10-16T12:50:31;18.77;56.78
65824;SHT31;52585;47.566;19.056;2022-10-16T12:53:03;18.80;56.69
65824;SHT31;52585;47.566;19.056;2022-10-16T13:04:55;18.86;56.40
65824;SHT31;52585;47.566;19.056;2022-10-16T13:10:53;18.86;56.02
65824;SHT31;52585;47.566;19.056;2022-10-16T13:16:35;18.88;56.06
65824;SHT31;52585;47.566;19.056;2022-10-16T13:19:23;18.88;56.52
65824;SHT31;52585;47.566;19.056;2022-10-16T13:28:14;18.90;55.95
65824;SHT31;52585;47.566;19.056;2022-10-16T13:30:54;18.91;55.85
65824;SHT31;52585;47.566;19.056;2022-10-16T13:33:30;18.91;55.74
65824;SHT31;52585;47.566;19.056;2022-10-16T13:36:17;18.92;55.66
65824;SHT31;52585;47.566;19.056;2022-10-16T13:38:47;18.94;55.75
65824;SHT31;52585;47.566;19.056;2022-10-16T13:41:25;18.96;55.57
65824;SHT31;52585;47.566;19.056;2022-10-16T13:43:52;18.98;55.67
65824;SHT31;52585;47.566;19.056;2022-10-16T13:46:22;19.01;55.83
65824;SHT31;52585;47.566;19.056;2022-10-16T13:48:57;19.04;55.97
65824;SHT31;52585;47.566;19.056;2022-10-16T13:51:26;19.06;55.87
65824;SHT31;52585;47.566;19.056;2022-10-16T13:53:54;19.07;55.81
65824;SHT31;52585;47.566;19.056;2022-10-16T13:56:22;19.06;55.79
65824;SHT31;52585;47.566;19.056;2022-10-16T13:58:59;19.06;56.14
65824;SHT31;52585;47.566;19.056;2022-10-16T14:01:41;19.06;56.39
65824;SHT31;52585;47.566;19.056;2022-10-16T14:04:11;19.06;56.32
65824;SHT31;52585;47.566;19.056;2022-10-16T14:06:43;19.08;56.23
65824;SHT31;52585;47.566;19.056;2022-10-16T14:09:29;19.11;57.28
65824;SHT31;52585;47.566;19.056;2022-10-16T14:12:00;19.17;57.77
65824;SHT31;52585;47.566;19.056;2022-10-16T14:14:52;19.18;57.99
65824;SHT31;52585;47.566;19.056;2022-10-16T14:19:57;19.16;56.89
65824;SHT31;52585;47.566;19.056;2022-10-16T14:22:30;19.16;56.65
65824;SHT31;52585;47.566;19.056;2022-10-16T14:30:49;19.16;56.73
65824;SHT31;52585;47.566;19.056;2022-10-16T14:36:00;19.17;56.26
65824;SHT31;52585;47.566;19.056;2022-10-16T14:38:29;19.17;56.27
65824;SHT31;52585;47.566;19.056;2022-10-16T14:40:57;19.17;55.92
65824;SHT31;52585;47.566;19.056;2022-10-16T14:43:34;19.18;55.69
65824;SHT31;52585;47.566;19.056;2022-10-16T14:46:09;19.17;55.80
65824;SHT31;52585;47.566;19.056;2022-10-16T14:48:43;19.17;55.96
65824;SHT31;52585;47.566;19.056;2022-10-16T14:51:18;19.17;56.13
65824;SHT31;52585;47.566;19.056;2022-10-16T14:53:45;19.16;55.78
65824;SHT31;52585;47.566;19.056;2022-10-16T14:56:19;19.16;55.42
65824;SHT31;52585;47.566;19.056;2022-10-16T14:58:51;19.16;55.17
65824;SHT31;52585;47.566;19.056;2022-10-16T15:01:18;19.16;55.41
65824;SHT31;52585;47.566;19.056;2022-10-16T15:03:45;19.15;55.22
65824;SHT31;52585;47.566;19.056;2022-10-16T15:06:11;19.15;55.21
65824;SHT31;52585;47.566;19.056;2022-10-16T15:08:40;19.15;55.33
65824;SHT31;52585;47.566;19.056;2022-10-16T15:11:14;19.15;55.49
65824;SHT31;52585;47.566;19.056;2022-10-16T15:13:43;19.15;55.46
65824;SHT31;52585;47.566;19.056;2022-10-16T15:16:10;19.15;55.54
65824;SHT31;52585;47.566;19.056;2022-10-16T15:18:39;19.14;55.51
65824;SHT31;52585;47.566;19.056;2022-10-16T15:21:06;19.14;55.57
65824;SHT31;52585;47.566;19.056;2022-10-16T15:23:34;19.14;55.52
65824;SHT31;52585;47.566;19.056;2022-10-16T15:26:00;19.13;55.65
65824;SHT31;52585;47.566;19.056;2022-10-16T15:28:26;19.12;55.85
65824;SHT31;52585;47.566;19.056;2022-10-16T15:30:52;19.11;55.79
65824;SHT31;52585;47.566;19.056;2022-10-16T15:33:27;19.11;55.94
65824;SHT31;52585;47.566;19.056;2022-10-16T15:35:58;19.09;56.23
65824;SHT31;52585;47.566;19.056;2022-10-16T15:38:24;19.08;56.94
65824;SHT31;52585;47.566;19.056;2022-10-16T15:40:53;19.05;57.64
65824;SHT31;52585;47.566;19.056;2022-10-16T15:43:20;19.04;58.12
65824;SHT31;52585;47.566;19.056;2022-10-16T15:45:52;19.02;58.79
65824;SHT31;52585;47.566;19.056;2022-10-16T15:48:30;19.00;59.35
65824;SHT31;52585;47.566;19.056;2022-10-16T15:50:57;18.98;59.58
65824;SHT31;52585;47.566;19.056;2022-10-16T15:53:25;18.94;59.94
65824;SHT31;52585;47.566;19.056;2022-10-16T15:55:51;18.91;60.34
65824;SHT31;52585;47.566;19.056;2022-10-16T15:58:17;18.89;60.54
65824;SHT31;52585;47.566;19.056;2022-10-16T16:00:43;18.87;60.50
65824;SHT31;52585;47.566;19.056;2022-10-16T16:03:09;18.84;60.70
65824;SHT31;52585;47.566;19.056;2022-10-16T16:05:39;18.81;61.06
65824;SHT31;52585;47.566;19.056;2022-10-16T16:08:05;18.78;61.23
65824;SHT31;52585;47.566;19.056;2022-10-16T16:10:40;18.76;61.63
65824;SHT31;52585;47.566;19.056;2022-10-16T16:13:36;18.73;62.16
65824;SHT31;52585;47.566;19.056;2022-10-16T16:16:06;18.71;62.16
65824;SHT31;52585;47.566;19.056;2022-10-16T16:18:35;18.70;62.08
65824;SHT31;52585;47.566;19.056;2022-10-16T16:21:01;18.67;62.11
65824;SHT31;52585;47.566;19.056;2022-10-16T16:23:28;18.65;62.07
65824;SHT31;52585;47.566;19.056;2022-10-16T16:26:07;18.62;62.06
65824;SHT31;52585;47.566;19.056;2022-10-16T16:28:51;18.59;62.07
65824;SHT31;52585;47.566;19.056;2022-10-16T16:31:19;18.56;61.97
65824;SHT31;52585;47.566;19.056;2022-10-16T16:33:49;18.51;62.00
65824;SHT31;52585;47.566;19.056;2022-10-16T16:36:16;18.47;62.10
65824;SHT31;52585;47.566;19.056;2022-10-16T16:38:43;18.44;62.10
65824;SHT31;52585;47.566;19.056;2022-10-16T16:41:20;18.41;62.22
65824;SHT31;52585;47.566;19.056;2022-10-16T16:44:07;18.37;62.47
65824;SHT31;52585;47.566;19.056;2022-10-16T16:46:36;18.33;62.62
65824;SHT31;52585;47.566;19.056;2022-10-16T16:49:08;18.27;62.59
65824;SHT31;52585;47.566;19.056;2022-10-16T16:51:37;18.24;62.69
65824;SHT31;52585;47.566;19.056;2022-10-16T16:54:04;18.21;62.76
65824;SHT31;52585;47.566;19.056;2022-10-16T16:56:33;18.18;62.87
65824;SHT31;52585;47.566;19.056;2022-10-16T16:59:00;18.13;62.98
65824;SHT31;52585;47.566;19.056;2022-10-16T17:01:26;18.10;63.19
65824;SHT31;52585;47.566;19.056;2022-10-16T17:03:53;18.08;63.39
65824;SHT31;52585;47.566;19.056;2022-10-16T17:06:23;18.04;63.40
65824;SHT31;52585;47.566;19.056;2022-10-16T17:08:52;17.99;63.40
65824;SHT31;52585;47.566;19.056;2022-10-16T17:11:21;17.97;63.59
65824;SHT31;52585;47.566;19.056;2022-10-16T17:13:50;17.93;63.80
65824;SHT31;52585;47.566;19.056;2022-10-16T17:16:20;17.92;64.00
65824;SHT31;52585;47.566;19.056;2022-10-16T17:18:52;17.90;63.95
65824;SHT31;52585;47.566;19.056;2022-10-16T17:21:18;17.89;63.92
65824;SHT31;52585;47.566;19.056;2022-10-16T17:23:45;17.87;64.04
65824;SHT31;52585;47.566;19.056;2022-10-16T17:26:14;17.86;63.98
65824;SHT31;52585;47.566;19.056;2022-10-16T17:28:41;17.83;64.00
65824;SHT31;52585;47.566;19.056;2022-10-16T17:31:15;17.81;63.97
65824;SHT31;52585;47.566;19.056;2022-10-16T17:33:44;17.79;63.94
65824;SHT31;52585;47.566;19.056;2022-10-16T17:36:10;17.78;63.88
65824;SHT31;52585;47.566;19.056;2022-10-16T17:38:38;17.75;63.85
65824;SHT31;52585;47.566;19.056;2022-10-16T17:41:13;17.71;63.87
65824;SHT31;52585;47.566;19.056;2022-10-16T17:43:40;17.80;64.62
65824;SHT31;52585;47.566;19.056;2022-10-16T17:46:06;17.88;63.77
65824;SHT31;52585;47.566;19.056;2022-10-16T17:48:38;17.86;63.67
65824;SHT31;52585;47.566;19.056;2022-10-16T17:51:07;17.85;63.66
65824;SHT31;52585;47.566;19.056;2022-10-16T17:53:36;17.83;63.92
65824;SHT31;52585;47.566;19.056;2022-10-16T17:56:07;17.82;63.44